sensor_id;sensor_type;location;lat;lon;timestamp;pressure;altitude;pressure_sealevel;temperature
81177;BMP280;74095;48.270;14.200;2024-01-15T00:02:12;96682.91;;;-2.63
81177;BMP280;74095;48.270;14.200;2024-01-15T00:04:39;96675.59;;;-2.78
81177;BMP280;74095;48.270;14.200;2024-01-15T00:07:06;96671.09;;;-2.82
81177;BMP280;74095;48.270;14.200;2024-01-15T00:09:32;96659.06;;;-2.83
81177;BMP280;74095;48.270;14.200;2024-01-15T00:11:59;96644.13;;;-2.88
81177;BMP280;74095;48.270;14.200;2024-01-15T00:14:25;96666.91;;;-2.83
81177;BMP280;74095;48.270;14.200;2024-01-15T00:16:51;96665.00;;;-3.00
81177;BMP280;74095;48.270;14.200;2024-01-15T00:19:18;96664.34;;;-3.07
81177;BMP280;74095;48.270;14.200;2024-01-15T00:21:44;96667.19;;;-3.08
81177;BMP280;74095;48.270;14.200;2024-01-15T00:24:10;96668.22;;;-3.09
81177;BMP280;74095;48.270;14.200;2024-01-15T00:26:36;96675.97;;;-3.14
81177;BMP280;74095;48.270;14.200;2024-01-15T00:29:02;96688.19;;;-3.15
81177;BMP280;74095;48.270;14.200;2024-01-15T00:31:29;96674.28;;;-3.20
81177;BMP280;74095;48.270;14.200;2024-01-15T00:33:58;96673.34;;;-3.26
81177;BMP280;74095;48.270;14.200;2024-01-15T00:36:24;96682.28;;;-3.10
81177;BMP280;74095;48.270;14.200;2024-01-15T00:38:49;96672.97;;;-3.06
81177;BMP280;74095;48.270;14.200;2024-01-15T00:41:15;96668.50;;;-2.94
81177;BMP280;74095;48.270;14.200;2024-01-15T00:43:41;96649.34;;;-2.88
81177;BMP280;74095;48.270;14.200;2024-01-15T00:46:07;96619.94;;;-2.83
81177;BMP280;74095;48.270;14.200;2024-01-15T00:48:33;96613.53;;;-2.76
81177;BMP280;74095;48.270;14.200;2024-01-15T00:50:59;96611.44;;;-2.62
81177;BMP280;74095;48.270;14.200;2024-01-15T00:53:25;96609.50;;;-2.67
81177;BMP280;74095;48.270;14.200;2024-01-15T00:55:51;96626.63;;;-2.59
81177;BMP280;74095;48.270;14.200;2024-01-15T00:58:18;96626.19;;;-2.68
81177;BMP280;74095;48.270;14.200;2024-01-15T01:00:44;96639.50;;;-2.53
81177;BMP280;74095;48.270;14.200;2024-01-15T01:03:10;96633.25;;;-2.52
81177;BMP280;74095;48.270;14.200;2024-01-15T01:05:36;96630.09;;;-2.54
81177;BMP280;74095;48.270;14.200;2024-01-15T01:08:02;96630.66;;;-2.52
81177;BMP280;74095;48.270;14.200;2024-01-15T01:10:28;96631.75;;;-2.48
81177;BMP280;74095;48.270;14.200;2024-01-15T01:12:53;96637.69;;;-2.35
81177;BMP280;74095;48.270;14.200;2024-01-15T01:15:19;96640.38;;;-2.30
81177;BMP280;74095;48.270;14.200;2024-01-15T01:17:45;96635.31;;;-2.37
81177;BMP280;74095;48.270;14.200;2024-01-15T01:20:12;96645.19;;;-2.27
81177;BMP280;74095;48.270;14.200;2024-01-15T01:22:39;96636.91;;;-2.36
81177;BMP280;74095;48.270;14.200;2024-01-15T01:25:05;96634.94;;;-2.46
81177;BMP280;74095;48.270;14.200;2024-01-15T01:27:31;96643.06;;;-2.42
81177;BMP280;74095;48.270;14.200;2024-01-15T01:29:57;96637.91;;;-2.37
81177;BMP280;74095;48.270;14.200;2024-01-15T01:32:23;96648.06;;;-2.40
81177;BMP280;74095;48.270;14.200;2024-01-15T01:34:49;96670.06;;;-2.36
81177;BMP280;74095;48.270;14.200;2024-01-15T01:37:15;96662.84;;;-2.46
81177;BMP280;74095;48.270;14.200;2024-01-15T01:39:42;96655.56;;;-2.61
81177;BMP280;74095;48.270;14.200;2024-01-15T01:42:08;96665.81;;;-2.71
81177;BMP280;74095;48.270;14.200;2024-01-15T01:44:34;96664.16;;;-2.77
81177;BMP280;74095;48.270;14.200;2024-01-15T01:47:01;96655.66;;;-2.84
81177;BMP280;74095;48.270;14.200;2024-01-15T01:49:27;96662.91;;;-2.86
81177;BMP280;74095;48.270;14.200;2024-01-15T01:51:58;96642.84;;;-2.86
81177;BMP280;74095;48.270;14.200;2024-01-15T01:54:28;96651.56;;;-2.80
81177;BMP280;74095;48.270;14.200;2024-01-15T01:56:55;96657.06;;;-2.93
81177;BMP280;74095;48.270;14.200;2024-01-15T01:59:23;96662.41;;;-3.00
81177;BMP280;74095;48.270;14.200;2024-01-15T02:01:50;96648.34;;;-2.99
81177;BMP280;74095;48.270;14.200;2024-01-15T02:04:17;96646.47;;;-2.87
81177;BMP280;74095;48.270;14.200;2024-01-15T02:06:43;96637.41;;;-2.84
81177;BMP280;74095;48.270;14.200;2024-01-15T02:09:09;96644.59;;;-2.74
81177;BMP280;74095;48.270;14.200;2024-01-15T02:11:36;96632.25;;;-2.79
81177;BMP280;74095;48.270;14.200;2024-01-15T02:14:03;96644.28;;;-2.78
81177;BMP280;74095;48.270;14.200;2024-01-15T02:16:29;96639.00;;;-2.95
81177;BMP280;74095;48.270;14.200;2024-01-15T02:18:54;96636.59;;;-3.13
81177;BMP280;74095;48.270;14.200;2024-01-15T02:21:20;96628.13;;;-3.32
81177;BMP280;74095;48.270;14.200;2024-01-15T02:23:46;96642.75;;;-3.31
81177;BMP280;74095;48.270;14.200;2024-01-15T02:26:13;96640.59;;;-3.34
81177;BMP280;74095;48.270;14.200;2024-01-15T02:28:39;96631.81;;;-3.44
81177;BMP280;74095;48.270;14.200;2024-01-15T02:31:07;96634.84;;;-3.47
81177;BMP280;74095;48.270;14.200;2024-01-15T02:33:33;96609.72;;;-3.53
81177;BMP280;74095;48.270;14.200;2024-01-15T02:35:58;96624.56;;;-3.54
81177;BMP280;74095;48.270;14.200;2024-01-15T02:38:24;96635.19;;;-3.44
81177;BMP280;74095;48.270;14.200;2024-01-15T02:40:50;96646.75;;;-3.40
81177;BMP280;74095;48.270;14.200;2024-01-15T02:43:17;96583.09;;;-3.67
81177;BMP280;74095;48.270;14.200;2024-01-15T02:45:45;96642.88;;;-3.26
81177;BMP280;74095;48.270;14.200;2024-01-15T02:48:12;96649.75;;;-3.19
81177;BMP280;74095;48.270;14.200;2024-01-15T02:50:38;96649.00;;;-3.20
81177;BMP280;74095;48.270;14.200;2024-01-15T02:53:04;96645.22;;;-3.24
81177;BMP280;74095;48.270;14.200;2024-01-15T02:55:30;96634.69;;;-3.17
81177;BMP280;74095;48.270;14.200;2024-01-15T02:57:56;96645.88;;;-3.05
81177;BMP280;74095;48.270;14.200;2024-01-15T03:00:22;96638.22;;;-2.95
81177;BMP280;74095;48.270;14.200;2024-01-15T03:02:50;96648.53;;;-2.89
81177;BMP280;74095;48.270;14.200;2024-01-15T03:05:16;96642.88;;;-2.97
81177;BMP280;74095;48.270;14.200;2024-01-15T03:07:42;96656.81;;;-2.92
81177;BMP280;74095;48.270;14.200;2024-01-15T03:10:09;96653.41;;;-2.92
81177;BMP280;74095;48.270;14.200;2024-01-15T03:12:35;96653.06;;;-2.84
81177;BMP280;74095;48.270;14.200;2024-01-15T03:15:01;96659.47;;;-2.75
81177;BMP280;74095;48.270;14.200;2024-01-15T03:17:28;96655.38;;;-2.71
81177;BMP280;74095;48.270;14.200;2024-01-15T03:19:54;96661.91;;;-2.57
81177;BMP280;74095;48.270;14.200;2024-01-15T03:22:20;96675.13;;;-2.47
81177;BMP280;74095;48.270;14.200;2024-01-15T03:24:46;96665.25;;;-2.44
81177;BMP280;74095;48.270;14.200;2024-01-15T03:27:12;96690.00;;;-2.30
81177;BMP280;74095;48.270;14.200;2024-01-15T03:29:39;96686.97;;;-2.27
81177;BMP280;74095;48.270;14.200;2024-01-15T03:32:05;96689.47;;;-2.32
81177;BMP280;74095;48.270;14.200;2024-01-15T03:34:31;96676.78;;;-2.40
81177;BMP280;74095;48.270;14.200;2024-01-15T03:36:57;96681.63;;;-2.32
81177;BMP280;74095;48.270;14.200;2024-01-15T03:39:25;96687.88;;;-2.33
81177;BMP280;74095;48.270;14.200;2024-01-15T03:41:51;96689.47;;;-2.32
81177;BMP280;74095;48.270;14.200;2024-01-15T03:44:17;96694.88;;;-2.22
81177;BMP280;74095;48.270;14.200;2024-01-15T03:46:43;96676.50;;;-2.27
81177;BMP280;74095;48.270;14.200;2024-01-15T03:49:09;96687.69;;;-2.15
81177;BMP280;74095;48.270;14.200;2024-01-15T03:51:35;96673.03;;;-2.16
81177;BMP280;74095;48.270;14.200;2024-01-15T03:54:01;96670.50;;;-2.11
81177;BMP280;74095;48.270;14.200;2024-01-15T03:56:27;96678.78;;;-2.14
81177;BMP280;74095;48.270;14.200;2024-01-15T03:58:53;96690.28;;;-2.15
81177;BMP280;74095;48.270;14.200;2024-01-15T04:01:19;96680.16;;;-2.12
81177;BMP280;74095;48.270;14.200;2024-01-15T04:03:45;96686.31;;;-2.18
81177;BMP280;74095;48.270;14.200;2024-01-15T04:06:11;96679.34;;;-2.12
81177;BMP280;74095;48.270;14.200;2024-01-15T04:08:37;96676.50;;;-2.11
81177;BMP280;74095;48.270;14.200;2024-01-15T04:11:03;96682.69;;;-2.00
81177;BMP280;74095;48.270;14.200;2024-01-15T04:13:32;96683.53;;;-1.94
81177;BMP280;74095;48.270;14.200;2024-01-15T04:15:59;96682.31;;;-1.87
81177;BMP280;74095;48.270;14.200;2024-01-15T04:18:26;96686.09;;;-1.83
81177;BMP280;74095;48.270;14.200;2024-01-15T04:20:52;96677.38;;;-1.72
81177;BMP280;74095;48.270;14.200;2024-01-15T04:23:17;96683.47;;;-1.66
81177;BMP280;74095;48.270;14.200;2024-01-15T04:25:43;96695.31;;;-1.58
81177;BMP280;74095;48.270;14.200;2024-01-15T04:28:10;96688.56;;;-1.54
81177;BMP280;74095;48.270;14.200;2024-01-15T04:30:36;96681.19;;;-1.57
81177;BMP280;74095;48.270;14.200;2024-01-15T04:33:02;96697.03;;;-1.47
81177;BMP280;74095;48.270;14.200;2024-01-15T04:35:28;96707.09;;;-1.39
81177;BMP280;74095;48.270;14.200;2024-01-15T04:37:54;96709.69;;;-1.39
81177;BMP280;74095;48.270;14.200;2024-01-15T04:40:20;96716.00;;;-1.35
81177;BMP280;74095;48.270;14.200;2024-01-15T04:42:46;96706.28;;;-1.40
81177;BMP280;74095;48.270;14.200;2024-01-15T04:45:12;96724.75;;;-1.30
81177;BMP280;74095;48.270;14.200;2024-01-15T04:47:38;96702.56;;;-1.44
81177;BMP280;74095;48.270;14.200;2024-01-15T04:50:04;96714.28;;;-1.30
81177;BMP280;74095;48.270;14.200;2024-01-15T04:52:30;96713.03;;;-1.27
81177;BMP280;74095;48.270;14.200;2024-01-15T04:54:56;96723.63;;;-1.17
81177;BMP280;74095;48.270;14.200;2024-01-15T04:57:22;96727.88;;;-1.11
81177;BMP280;74095;48.270;14.200;2024-01-15T04:59:48;96726.59;;;-1.08
81177;BMP280;74095;48.270;14.200;2024-01-15T05:02:14;96717.94;;;-1.09
81177;BMP280;74095;48.270;14.200;2024-01-15T05:04:40;96709.63;;;-1.06
81177;BMP280;74095;48.270;14.200;2024-01-15T05:07:06;96701.22;;;-1.08
81177;BMP280;74095;48.270;14.200;2024-01-15T05:09:32;96707.53;;;-1.04
81177;BMP280;74095;48.270;14.200;2024-01-15T05:11:58;96707.34;;;-0.97
81177;BMP280;74095;48.270;14.200;2024-01-15T05:14:24;96717.03;;;-0.98
81177;BMP280;74095;48.270;14.200;2024-01-15T05:16:50;96723.63;;;-0.95
81177;BMP280;74095;48.270;14.200;2024-01-15T05:19:16;96730.59;;;-1.01
81177;BMP280;74095;48.270;14.200;2024-01-15T05:21:42;96709.56;;;-1.11
81177;BMP280;74095;48.270;14.200;2024-01-15T05:24:08;96709.69;;;-1.01
81177;BMP280;74095;48.270;14.200;2024-01-15T05:26:34;96693.53;;;-1.14
81177;BMP280;74095;48.270;14.200;2024-01-15T05:29:00;96714.34;;;-1.03
81177;BMP280;74095;48.270;14.200;2024-01-15T05:31:26;96712.72;;;-1.09
81177;BMP280;74095;48.270;14.200;2024-01-15T05:33:52;96718.25;;;-1.05
81177;BMP280;74095;48.270;14.200;2024-01-15T05:36:19;96714.13;;;-1.01
81177;BMP280;74095;48.270;14.200;2024-01-15T05:38:45;96711.50;;;-1.01
81177;BMP280;74095;48.270;14.200;2024-01-15T05:41:10;96722.75;;;-1.01
81177;BMP280;74095;48.270;14.200;2024-01-15T05:43:36;96723.84;;;-0.97
81177;BMP280;74095;48.270;14.200;2024-01-15T05:46:02;96725.91;;;-0.99
81177;BMP280;74095;48.270;14.200;2024-01-15T05:48:28;96727.19;;;-1.01
81177;BMP280;74095;48.270;14.200;2024-01-15T05:50:54;96728.53;;;-0.99
81177;BMP280;74095;48.270;14.200;2024-01-15T05:53:20;96730.66;;;-0.96
81177;BMP280;74095;48.270;14.200;2024-01-15T05:55:46;96738.47;;;-1.01
81177;BMP280;74095;48.270;14.200;2024-01-15T05:58:12;96733.22;;;-1.01
81177;BMP280;74095;48.270;14.200;2024-01-15T06:00:38;96693.19;;;-1.23
81177;BMP280;74095;48.270;14.200;2024-01-15T06:03:04;96721.28;;;-0.92
81177;BMP280;74095;48.270;14.200;2024-01-15T06:05:30;96713.94;;;-0.95
81177;BMP280;74095;48.270;14.200;2024-01-15T06:07:56;96706.56;;;-0.98
81177;BMP280;74095;48.270;14.200;2024-01-15T06:10:22;96705.47;;;-1.02
81177;BMP280;74095;48.270;14.200;2024-01-15T06:12:48;96701.56;;;-0.99
81177;BMP280;74095;48.270;14.200;2024-01-15T06:15:14;96704.97;;;-0.99
81177;BMP280;74095;48.270;14.200;2024-01-15T06:17:40;96701.09;;;-0.96
81177;BMP280;74095;48.270;14.200;2024-01-15T06:20:06;96714.78;;;-0.89
81177;BMP280;74095;48.270;14.200;2024-01-15T06:22:32;96715.06;;;-0.86
81177;BMP280;74095;48.270;14.200;2024-01-15T06:24:58;96704.66;;;-0.80
81177;BMP280;74095;48.270;14.200;2024-01-15T06:27:24;96701.06;;;-0.74
81177;BMP280;74095;48.270;14.200;2024-01-15T06:29:50;96697.16;;;-0.72
81177;BMP280;74095;48.270;14.200;2024-01-15T06:32:16;96688.72;;;-0.79
81177;BMP280;74095;48.270;14.200;2024-01-15T06:34:42;96686.63;;;-0.77
81177;BMP280;74095;48.270;14.200;2024-01-15T06:37:08;96693.09;;;-0.85
81177;BMP280;74095;48.270;14.200;2024-01-15T06:39:34;96689.44;;;-0.84
81177;BMP280;74095;48.270;14.200;2024-01-15T06:42:00;96687.41;;;-0.76
81177;BMP280;74095;48.270;14.200;2024-01-15T06:44:26;96687.63;;;-0.83
81177;BMP280;74095;48.270;14.200;2024-01-15T06:46:52;96694.78;;;-0.73
81177;BMP280;74095;48.270;14.200;2024-01-15T06:49:19;96686.75;;;-0.67
81177;BMP280;74095;48.270;14.200;2024-01-15T06:51:45;96679.59;;;-0.71
81177;BMP280;74095;48.270;14.200;2024-01-15T06:54:10;96676.00;;;-0.65
81177;BMP280;74095;48.270;14.200;2024-01-15T06:56:36;96675.75;;;-0.64
81177;BMP280;74095;48.270;14.200;2024-01-15T06:59:02;96680.28;;;-0.54
81177;BMP280;74095;48.270;14.200;2024-01-15T07:01:29;96685.06;;;-0.51
81177;BMP280;74095;48.270;14.200;2024-01-15T07:03:54;96687.13;;;-0.53
81177;BMP280;74095;48.270;14.200;2024-01-15T07:06:20;96685.00;;;-0.56
81177;BMP280;74095;48.270;14.200;2024-01-15T07:08:46;96692.13;;;-0.52
81177;BMP280;74095;48.270;14.200;2024-01-15T07:11:12;96677.72;;;-0.49
81177;BMP280;74095;48.270;14.200;2024-01-15T07:13:38;96692.41;;;-0.48
81177;BMP280;74095;48.270;14.200;2024-01-15T07:16:04;96682.28;;;-0.66
81177;BMP280;74095;48.270;14.200;2024-01-15T07:18:30;96691.75;;;-0.60
81177;BMP280;74095;48.270;14.200;2024-01-15T07:20:56;96699.19;;;-0.52
81177;BMP280;74095;48.270;14.200;2024-01-15T07:23:22;96696.09;;;-0.44
81177;BMP280;74095;48.270;14.200;2024-01-15T07:25:48;96700.84;;;-0.41
81177;BMP280;74095;48.270;14.200;2024-01-15T07:28:14;96685.84;;;-0.51
81177;BMP280;74095;48.270;14.200;2024-01-15T07:30:40;96699.47;;;-0.49
81177;BMP280;74095;48.270;14.200;2024-01-15T07:33:06;96684.25;;;-0.52
81177;BMP280;74095;48.270;14.200;2024-01-15T07:35:32;96694.81;;;-0.42
81177;BMP280;74095;48.270;14.200;2024-01-15T07:37:58;96690.66;;;-0.37
81177;BMP280;74095;48.270;14.200;2024-01-15T07:40:24;96699.31;;;-0.37
81177;BMP280;74095;48.270;14.200;2024-01-15T07:42:51;96693.03;;;-0.36
81177;BMP280;74095;48.270;14.200;2024-01-15T07:45:17;96694.16;;;-0.32
81177;BMP280;74095;48.270;14.200;2024-01-15T07:47:43;96696.81;;;-0.27
81177;BMP280;74095;48.270;14.200;2024-01-15T07:50:10;96687.72;;;-0.19
81177;BMP280;74095;48.270;14.200;2024-01-15T07:52:36;96680.59;;;-0.24
81177;BMP280;74095;48.270;14.200;2024-01-15T07:55:02;96690.09;;;-0.18
81177;BMP280;74095;48.270;14.200;2024-01-15T07:57:31;96684.34;;;-0.15
81177;BMP280;74095;48.270;14.200;2024-01-15T07:59:57;96679.56;;;-0.23
81177;BMP280;74095;48.270;14.200;2024-01-15T08:02:23;96672.19;;;-0.26
81177;BMP280;74095;48.270;14.200;2024-01-15T08:04:49;96679.84;;;-0.19
81177;BMP280;74095;48.270;14.200;2024-01-15T08:07:15;96670.16;;;-0.19
81177;BMP280;74095;48.270;14.200;2024-01-15T08:09:41;96676.22;;;-0.13
81177;BMP280;74095;48.270;14.200;2024-01-15T08:12:07;96669.38;;;-0.19
81177;BMP280;74095;48.270;14.200;2024-01-15T08:14:33;96678.09;;;-0.09
81177;BMP280;74095;48.270;14.200;2024-01-15T08:16:59;96673.31;;;-0.17
81177;BMP280;74095;48.270;14.200;2024-01-15T08:19:25;96652.56;;;-0.23
81177;BMP280;74095;48.270;14.200;2024-01-15T08:21:51;96667.03;;;-0.16
81177;BMP280;74095;48.270;14.200;2024-01-15T08:24:17;96667.31;;;-0.12
81177;BMP280;74095;48.270;14.200;2024-01-15T08:26:43;96662.88;;;-0.12
81177;BMP280;74095;48.270;14.200;2024-01-15T08:29:09;96666.03;;;-0.10
81177;BMP280;74095;48.270;14.200;2024-01-15T08:31:35;96650.25;;;-0.15
81177;BMP280;74095;48.270;14.200;2024-01-15T08:34:01;96663.75;;;-0.01
81177;BMP280;74095;48.270;14.200;2024-01-15T08:36:28;96670.59;;;0.05
81177;BMP280;74095;48.270;14.200;2024-01-15T08:38:55;96648.03;;;0.04
81177;BMP280;74095;48.270;14.200;2024-01-15T08:41:21;96673.06;;;0.22
81177;BMP280;74095;48.270;14.200;2024-01-15T08:43:47;96679.13;;;0.32
81177;BMP280;74095;48.270;14.200;2024-01-15T08:46:13;96670.28;;;0.43
81177;BMP280;74095;48.270;14.200;2024-01-15T08:48:39;96676.09;;;0.56
81177;BMP280;74095;48.270;14.200;2024-01-15T08:51:05;96677.19;;;0.65
81177;BMP280;74095;48.270;14.200;2024-01-15T08:53:31;96683.28;;;0.75
81177;BMP280;74095;48.270;14.200;2024-01-15T08:55:58;96684.31;;;0.74
81177;BMP280;74095;48.270;14.200;2024-01-15T08:58:24;96685.88;;;0.70
81177;BMP280;74095;48.270;14.200;2024-01-15T09:00:51;96671.16;;;0.64
81177;BMP280;74095;48.270;14.200;2024-01-15T09:03:17;96681.16;;;0.77
81177;BMP280;74095;48.270;14.200;2024-01-15T09:05:43;96677.28;;;0.85
81177;BMP280;74095;48.270;14.200;2024-01-15T09:08:09;96681.50;;;0.91
81177;BMP280;74095;48.270;14.200;2024-01-15T09:10:35;96666.47;;;0.71
81177;BMP280;74095;48.270;14.200;2024-01-15T09:13:01;96693.00;;;0.75
81177;BMP280;74095;48.270;14.200;2024-01-15T09:15:29;96675.91;;;0.77
81177;BMP280;74095;48.270;14.200;2024-01-15T09:17:55;96672.56;;;0.82
81177;BMP280;74095;48.270;14.200;2024-01-15T09:20:23;96680.97;;;0.94
81177;BMP280;74095;48.270;14.200;2024-01-15T09:22:49;96673.38;;;0.88
81177;BMP280;74095;48.270;14.200;2024-01-15T09:25:15;96675.44;;;0.85
81177;BMP280;74095;48.270;14.200;2024-01-15T09:27:41;96678.34;;;0.89
81177;BMP280;74095;48.270;14.200;2024-01-15T09:30:07;96677.06;;;1.02
81177;BMP280;74095;48.270;14.200;2024-01-15T09:32:34;96663.13;;;0.96
81177;BMP280;74095;48.270;14.200;2024-01-15T09:35:00;96661.88;;;1.04
81177;BMP280;74095;48.270;14.200;2024-01-15T09:37:26;96661.88;;;1.09
81177;BMP280;74095;48.270;14.200;2024-01-15T09:39:51;96651.59;;;1.02
81177;BMP280;74095;48.270;14.200;2024-01-15T09:42:17;96666.09;;;1.15
81177;BMP280;74095;48.270;14.200;2024-01-15T09:44:44;96661.09;;;1.18
81177;BMP280;74095;48.270;14.200;2024-01-15T09:47:12;96666.13;;;1.30
81177;BMP280;74095;48.270;14.200;2024-01-15T09:49:38;96675.59;;;1.31
81177;BMP280;74095;48.270;14.200;2024-01-15T09:52:07;96679.25;;;1.40
81177;BMP280;74095;48.270;14.200;2024-01-15T09:54:33;96666.41;;;1.49
81177;BMP280;74095;48.270;14.200;2024-01-15T09:57:00;96672.97;;;1.56
81177;BMP280;74095;48.270;14.200;2024-01-15T09:59:26;96656.69;;;1.54
81177;BMP280;74095;48.270;14.200;2024-01-15T10:01:53;96655.09;;;1.63
81177;BMP280;74095;48.270;14.200;2024-01-15T10:04:21;96670.06;;;1.78
81177;BMP280;74095;48.270;14.200;2024-01-15T10:06:47;96667.19;;;1.80
81177;BMP280;74095;48.270;14.200;2024-01-15T10:09:17;96659.84;;;1.82
81177;BMP280;74095;48.270;14.200;2024-01-15T10:11:44;96666.91;;;1.86
81177;BMP280;74095;48.270;14.200;2024-01-15T10:14:13;96646.66;;;1.71
81177;BMP280;74095;48.270;14.200;2024-01-15T10:16:39;96648.78;;;1.85
81177;BMP280;74095;48.270;14.200;2024-01-15T10:19:05;96654.53;;;1.87
81177;BMP280;74095;48.270;14.200;2024-01-15T10:21:32;96649.84;;;1.84
81177;BMP280;74095;48.270;14.200;2024-01-15T10:24:02;96640.84;;;2.00
81177;BMP280;74095;48.270;14.200;2024-01-15T10:26:29;96639.00;;;1.95
81177;BMP280;74095;48.270;14.200;2024-01-15T10:28:58;96636.38;;;1.95
81177;BMP280;74095;48.270;14.200;2024-01-15T10:31:25;96635.84;;;2.08
81177;BMP280;74095;48.270;14.200;2024-01-15T10:33:51;96639.78;;;2.16
81177;BMP280;74095;48.270;14.200;2024-01-15T10:36:17;96628.19;;;2.17
81177;BMP280;74095;48.270;14.200;2024-01-15T10:38:44;96622.06;;;2.32
81177;BMP280;74095;48.270;14.200;2024-01-15T10:41:10;96608.13;;;2.36
81177;BMP280;74095;48.270;14.200;2024-01-15T10:43:36;96606.03;;;2.33
81177;BMP280;74095;48.270;14.200;2024-01-15T10:46:03;96610.19;;;2.44
81177;BMP280;74095;48.270;14.200;2024-01-15T10:48:29;96605.59;;;2.65
81177;BMP280;74095;48.270;14.200;2024-01-15T10:50:57;96612.66;;;2.80
81177;BMP280;74095;48.270;14.200;2024-01-15T10:53:24;96608.34;;;2.94
81177;BMP280;74095;48.270;14.200;2024-01-15T10:55:54;96613.56;;;3.04
81177;BMP280;74095;48.270;14.200;2024-01-15T10:58:21;96598.81;;;2.98
81177;BMP280;74095;48.270;14.200;2024-01-15T11:00:49;96596.19;;;3.03
81177;BMP280;74095;48.270;14.200;2024-01-15T11:03:15;96603.53;;;3.06
81177;BMP280;74095;48.270;14.200;2024-01-15T11:05:43;96600.91;;;3.06
81177;BMP280;74095;48.270;14.200;2024-01-15T11:08:10;96610.91;;;3.04
81177;BMP280;74095;48.270;14.200;2024-01-15T11:10:42;96607.75;;;3.07
81177;BMP280;74095;48.270;14.200;2024-01-15T11:13:10;96609.84;;;3.10
81177;BMP280;74095;48.270;14.200;2024-01-15T11:16:05;96609.84;;;3.10
81177;BMP280;74095;48.270;14.200;2024-01-15T11:18:36;96595.63;;;3.06
81177;BMP280;74095;48.270;14.200;2024-01-15T11:23:46;96597.00;;;2.93
81177;BMP280;74095;48.270;14.200;2024-01-15T11:26:37;96598.06;;;2.97
81177;BMP280;74095;48.270;14.200;2024-01-15T11:31:57;96585.78;;;2.83
81177;BMP280;74095;48.270;14.200;2024-01-15T11:34:50;96588.94;;;2.85
81177;BMP280;74095;48.270;14.200;2024-01-15T11:37:16;96579.09;;;2.95
81177;BMP280;74095;48.270;14.200;2024-01-15T11:39:43;96586.19;;;3.00
81177;BMP280;74095;48.270;14.200;2024-01-15T11:42:10;96579.28;;;3.09
81177;BMP280;74095;48.270;14.200;2024-01-15T11:44:38;96576.13;;;3.07
81177;BMP280;74095;48.270;14.200;2024-01-15T11:47:08;96560.91;;;2.99
81177;BMP280;74095;48.270;14.200;2024-01-15T11:50:00;96551.59;;;3.12
81177;BMP280;74095;48.270;14.200;2024-01-15T11:52:34;96557.34;;;3.19
81177;BMP280;74095;48.270;14.200;2024-01-15T11:55:29;96557.34;;;3.19
81177;BMP280;74095;48.270;14.200;2024-01-15T11:57:57;96538.22;;;3.03
81177;BMP280;74095;48.270;14.200;2024-01-15T12:00:24;96553.84;;;3.23
81177;BMP280;74095;48.270;14.200;2024-01-15T12:02:50;96536.53;;;3.17
81177;BMP280;74095;48.270;14.200;2024-01-15T12:05:18;96542.53;;;3.23
81177;BMP280;74095;48.270;14.200;2024-01-15T12:07:48;96541.91;;;3.36
81177;BMP280;74095;48.270;14.200;2024-01-15T12:10:17;96549.00;;;3.40
81177;BMP280;74095;48.270;14.200;2024-01-15T12:13:09;96538.94;;;3.42
81177;BMP280;74095;48.270;14.200;2024-01-15T12:15:35;96526.09;;;3.31
81177;BMP280;74095;48.270;14.200;2024-01-15T12:18:02;96540.34;;;3.35
81177;BMP280;74095;48.270;14.200;2024-01-15T12:20:29;96534.31;;;3.29
81177;BMP280;74095;48.270;14.200;2024-01-15T12:22:55;96536.63;;;3.36
81177;BMP280;74095;48.270;14.200;2024-01-15T12:25:22;96532.47;;;3.30
81177;BMP280;74095;48.270;14.200;2024-01-15T12:27:49;96533.75;;;3.32
81177;BMP280;74095;48.270;14.200;2024-01-15T12:30:15;96509.13;;;3.18
81177;BMP280;74095;48.270;14.200;2024-01-15T12:32:42;96519.34;;;3.25
81177;BMP280;74095;48.270;14.200;2024-01-15T12:35:09;96527.41;;;3.33
81177;BMP280;74095;48.270;14.200;2024-01-15T12:37:36;96531.91;;;3.33
81177;BMP280;74095;48.270;14.200;2024-01-15T12:40:03;96533.25;;;3.30
81177;BMP280;74095;48.270;14.200;2024-01-15T12:42:33;96526.44;;;3.24
81177;BMP280;74095;48.270;14.200;2024-01-15T12:45:05;96529.09;;;3.24
81177;BMP280;74095;48.270;14.200;2024-01-15T12:47:31;96528.84;;;3.21
81177;BMP280;74095;48.270;14.200;2024-01-15T12:49:58;96542.25;;;3.24
81177;BMP280;74095;48.270;14.200;2024-01-15T12:52:28;96528.41;;;3.14
81177;BMP280;74095;48.270;14.200;2024-01-15T12:54:55;96500.00;;;3.06
81177;BMP280;74095;48.270;14.200;2024-01-15T12:57:21;96517.56;;;3.15
81177;BMP280;74095;48.270;14.200;2024-01-15T12:59:47;96525.44;;;3.20
81177;BMP280;74095;48.270;14.200;2024-01-15T13:02:13;96522.72;;;3.25
81177;BMP280;74095;48.270;14.200;2024-01-15T13:04:39;96518.53;;;3.24
81177;BMP280;74095;48.270;14.200;2024-01-15T13:07:06;96515.56;;;3.31
81177;BMP280;74095;48.270;14.200;2024-01-15T13:09:33;96521.13;;;3.29
81177;BMP280;74095;48.270;14.200;2024-01-15T13:12:01;96520.09;;;3.25
81177;BMP280;74095;48.270;14.200;2024-01-15T13:14:28;96524.25;;;3.31
81177;BMP280;74095;48.270;14.200;2024-01-15T13:16:54;96516.91;;;3.28
81177;BMP280;74095;48.270;14.200;2024-01-15T13:19:22;96501.63;;;3.30
81177;BMP280;74095;48.270;14.200;2024-01-15T13:21:48;96506.84;;;3.35
81177;BMP280;74095;48.270;14.200;2024-01-15T13:24:15;96503.75;;;3.28
81177;BMP280;74095;48.270;14.200;2024-01-15T13:26:41;96505.53;;;3.33
81177;BMP280;74095;48.270;14.200;2024-01-15T13:29:07;96502.53;;;3.44
81177;BMP280;74095;48.270;14.200;2024-01-15T13:31:33;96515.00;;;3.39
81177;BMP280;74095;48.270;14.200;2024-01-15T13:33:59;96515.25;;;3.37
81177;BMP280;74095;48.270;14.200;2024-01-15T13:36:26;96515.22;;;3.42
81177;BMP280;74095;48.270;14.200;2024-01-15T13:38:53;96519.16;;;3.45
81177;BMP280;74095;48.270;14.200;2024-01-15T13:41:22;96508.38;;;3.41
81177;BMP280;74095;48.270;14.200;2024-01-15T13:43:53;96514.66;;;3.45
81177;BMP280;74095;48.270;14.200;2024-01-15T13:46:23;96508.25;;;3.52
81177;BMP280;74095;48.270;14.200;2024-01-15T13:48:49;96509.84;;;3.47
81177;BMP280;74095;48.270;14.200;2024-01-15T13:51:15;96509.50;;;3.35
81177;BMP280;74095;48.270;14.200;2024-01-15T13:53:41;96521.59;;;3.36
81177;BMP280;74095;48.270;14.200;2024-01-15T13:56:07;96527.91;;;3.40
81177;BMP280;74095;48.270;14.200;2024-01-15T13:58:36;96519.34;;;3.48
81177;BMP280;74095;48.270;14.200;2024-01-15T14:01:02;96522.06;;;3.43
81177;BMP280;74095;48.270;14.200;2024-01-15T14:03:30;96526.66;;;3.57
81177;BMP280;74095;48.270;14.200;2024-01-15T14:05:55;96521.03;;;3.39